Terminal Aerodrome Forecast
Issued by NWS Sterling, VA

Current Version | Previous Version | Graphics & Text | Print | Product List | Glossary Off
Versions: 1 2 3 4 5 6 7 8 9 10 11 12 13 14 15

000
FTUS41 KLWX 250520
TAFMRB
TAF
KMRB 250520Z 2506/2606 01006KT 3SM -RA BR BKN004 OVC015
     FM250800 36005KT 3SM BR BKN004 OVC015
     FM251300 34005KT 6SM BR BKN008 OVC015
     FM251600 34008KT P6SM BKN015 OVC050
     FM251800 33008KT P6SM BKN025 BKN050
     FM252000 33008G16KT P6SM SCT025 BKN050
     FM260200 31008G16KT P6SM SCT050 SCT250=

USA.gov is the U.S. government's official web portal to all federal, state and local government web resources and services.